sensor_id;sensor_type;location;lat;lon;timestamp;P1;durP1;ratioP1;P2;durP2;ratioP2
37341;SDS011;58643;49.052;8.518;2023-03-01T00:01:17;24.15;;;11.80;;
37341;SDS011;58643;49.052;8.518;2023-03-01T00:03:44;23.88;;;11.70;;
37341;SDS011;58643;49.052;8.518;2023-03-01T00:06:10;20.15;;;10.93;;
37341;SDS011;58643;49.052;8.518;2023-03-01T00:08:35;20.70;;;11.57;;
37341;SDS011;58643;49.052;8.518;2023-03-01T00:11:02;24.42;;;11.98;;
37341;SDS011;58643;49.052;8.518;2023-03-01T00:13:42;20.80;;;11.10;;
37341;SDS011;58643;49.052;8.518;2023-03-01T00:16:10;22.40;;;11.18;;
37341;SDS011;58643;49.052;8.518;2023-03-01T00:18:38;27.45;;;13.23;;
37341;SDS011;58643;49.052;8.518;2023-03-01T00:21:04;24.83;;;11.52;;
37341;SDS011;58643;49.052;8.518;2023-03-01T00:23:30;24.05;;;11.73;;
37341;SDS011;58643;49.052;8.518;2023-03-01T00:25:56;25.02;;;12.25;;
37341;SDS011;58643;49.052;8.518;2023-03-01T00:28:22;26.75;;;12.07;;
37341;SDS011;58643;49.052;8.518;2023-03-01T00:30:48;27.77;;;13.10;;
37341;SDS011;58643;49.052;8.518;2023-03-01T00:33:14;24.65;;;12.75;;
37341;SDS011;58643;49.052;8.518;2023-03-01T00:35:39;26.77;;;12.32;;
37341;SDS011;58643;49.052;8.518;2023-03-01T00:38:05;25.85;;;12.30;;
37341;SDS011;58643;49.052;8.518;2023-03-01T00:40:33;22.65;;;12.13;;
37341;SDS011;58643;49.052;8.518;2023-03-01T00:43:00;24.30;;;12.32;;
37341;SDS011;58643;49.052;8.518;2023-03-01T00:45:26;25.38;;;12.23;;
37341;SDS011;58643;49.052;8.518;2023-03-01T00:47:52;27.25;;;13.82;;
37341;SDS011;58643;49.052;8.518;2023-03-01T00:50:17;25.60;;;12.35;;
37341;SDS011;58643;49.052;8.518;2023-03-01T00:52:44;23.45;;;12.57;;
37341;SDS011;58643;49.052;8.518;2023-03-01T00:55:09;31.02;;;12.50;;
37341;SDS011;58643;49.052;8.518;2023-03-01T00:57:36;24.40;;;11.63;;
37341;SDS011;58643;49.052;8.518;2023-03-01T01:00:03;27.77;;;12.63;;
37341;SDS011;58643;49.052;8.518;2023-03-01T01:02:32;23.87;;;12.63;;
37341;SDS011;58643;49.052;8.518;2023-03-01T01:04:59;26.02;;;12.30;;
37341;SDS011;58643;49.052;8.518;2023-03-01T01:07:24;24.85;;;12.25;;
37341;SDS011;58643;49.052;8.518;2023-03-01T01:09:50;23.80;;;11.95;;
37341;SDS011;58643;49.052;8.518;2023-03-01T01:12:16;24.17;;;12.95;;
37341;SDS011;58643;49.052;8.518;2023-03-01T01:14:41;29.38;;;12.68;;
37341;SDS011;58643;49.052;8.518;2023-03-01T01:17:07;24.40;;;12.25;;
37341;SDS011;58643;49.052;8.518;2023-03-01T01:19:32;32.90;;;12.98;;
37341;SDS011;58643;49.052;8.518;2023-03-01T01:21:58;27.08;;;13.25;;
37341;SDS011;58643;49.052;8.518;2023-03-01T01:24:24;27.20;;;12.85;;
37341;SDS011;58643;49.052;8.518;2023-03-01T01:26:49;26.63;;;12.70;;
37341;SDS011;58643;49.052;8.518;2023-03-01T01:29:15;23.77;;;12.05;;
37341;SDS011;58643;49.052;8.518;2023-03-01T01:31:41;25.77;;;11.77;;
37341;SDS011;58643;49.052;8.518;2023-03-01T01:34:08;25.08;;;12.68;;
37341;SDS011;58643;49.052;8.518;2023-03-01T01:36:38;24.10;;;12.05;;
37341;SDS011;58643;49.052;8.518;2023-03-01T01:39:03;29.15;;;13.65;;
37341;SDS011;58643;49.052;8.518;2023-03-01T01:41:29;23.45;;;12.07;;
37341;SDS011;58643;49.052;8.518;2023-03-01T01:54:43;26.23;;;12.93;;
37341;SDS011;58643;49.052;8.518;2023-03-01T01:57:12;26.63;;;13.07;;
37341;SDS011;58643;49.052;8.518;2023-03-01T01:59:41;26.55;;;13.18;;
37341;SDS011;58643;49.052;8.518;2023-03-01T02:02:10;24.58;;;12.38;;
37341;SDS011;58643;49.052;8.518;2023-03-01T02:04:37;28.08;;;13.20;;
37341;SDS011;58643;49.052;8.518;2023-03-01T02:07:06;24.27;;;12.15;;
37341;SDS011;58643;49.052;8.518;2023-03-01T02:09:44;25.33;;;12.98;;
37341;SDS011;58643;49.052;8.518;2023-03-01T02:12:12;25.92;;;12.35;;
37341;SDS011;58643;49.052;8.518;2023-03-01T02:14:40;20.73;;;11.90;;
37341;SDS011;58643;49.052;8.518;2023-03-01T02:17:05;27.05;;;12.75;;
37341;SDS011;58643;49.052;8.518;2023-03-01T02:19:43;26.00;;;12.55;;
37341;SDS011;58643;49.052;8.518;2023-03-01T02:22:22;23.98;;;13.27;;
37341;SDS011;58643;49.052;8.518;2023-03-01T02:27:29;24.90;;;12.13;;
37341;SDS011;58643;49.052;8.518;2023-03-01T02:30:03;28.00;;;13.43;;
37341;SDS011;58643;49.052;8.518;2023-03-01T02:32:29;27.98;;;12.68;;
37341;SDS011;58643;49.052;8.518;2023-03-01T02:34:56;25.42;;;13.00;;
37341;SDS011;58643;49.052;8.518;2023-03-01T02:37:21;26.83;;;13.55;;
37341;SDS011;58643;49.052;8.518;2023-03-01T02:39:59;28.77;;;13.20;;
37341;SDS011;58643;49.052;8.518;2023-03-01T02:42:31;27.50;;;14.25;;
37341;SDS011;58643;49.052;8.518;2023-03-01T02:45:02;28.10;;;14.00;;
37341;SDS011;58643;49.052;8.518;2023-03-01T02:47:28;31.15;;;14.05;;
37341;SDS011;58643;49.052;8.518;2023-03-01T02:49:54;26.23;;;12.75;;
37341;SDS011;58643;49.052;8.518;2023-03-01T02:55:33;35.20;;;14.75;;
37341;SDS011;58643;49.052;8.518;2023-03-01T02:57:59;29.08;;;13.57;;
37341;SDS011;58643;49.052;8.518;2023-03-01T03:00:37;29.48;;;13.57;;
37341;SDS011;58643;49.052;8.518;2023-03-01T03:03:10;24.33;;;12.82;;
37341;SDS011;58643;49.052;8.518;2023-03-01T03:05:39;25.48;;;13.20;;
37341;SDS011;58643;49.052;8.518;2023-03-01T03:08:04;28.02;;;12.85;;
37341;SDS011;58643;49.052;8.518;2023-03-01T03:10:33;27.52;;;13.32;;
37341;SDS011;58643;49.052;8.518;2023-03-01T03:13:04;28.90;;;13.87;;
37341;SDS011;58643;49.052;8.518;2023-03-01T03:18:08;30.92;;;15.30;;
37341;SDS011;58643;49.052;8.518;2023-03-01T03:20:38;31.13;;;13.93;;
37341;SDS011;58643;49.052;8.518;2023-03-01T03:23:05;27.15;;;13.85;;
37341;SDS011;58643;49.052;8.518;2023-03-01T03:25:31;31.63;;;14.75;;
37341;SDS011;58643;49.052;8.518;2023-03-01T03:27:57;31.95;;;14.93;;
37341;SDS011;58643;49.052;8.518;2023-03-01T03:30:24;35.38;;;14.55;;
37341;SDS011;58643;49.052;8.518;2023-03-01T03:32:52;29.35;;;13.80;;
37341;SDS011;58643;49.052;8.518;2023-03-01T03:38:14;33.75;;;15.35;;
37341;SDS011;58643;49.052;8.518;2023-03-01T03:41:01;32.40;;;14.25;;
37341;SDS011;58643;49.052;8.518;2023-03-01T03:43:33;28.42;;;12.07;;
37341;SDS011;58643;49.052;8.518;2023-03-01T03:46:01;29.40;;;14.05;;
37341;SDS011;58643;49.052;8.518;2023-03-01T03:48:30;30.88;;;14.73;;
37341;SDS011;58643;49.052;8.518;2023-03-01T03:50:59;27.95;;;14.38;;
37341;SDS011;58643;49.052;8.518;2023-03-01T03:53:26;42.35;;;18.35;;
37341;SDS011;58643;49.052;8.518;2023-03-01T03:55:54;37.90;;;17.10;;
37341;SDS011;58643;49.052;8.518;2023-03-01T03:58:21;32.75;;;14.88;;
37341;SDS011;58643;49.052;8.518;2023-03-01T04:00:48;33.80;;;14.95;;
37341;SDS011;58643;49.052;8.518;2023-03-01T04:03:16;30.98;;;14.98;;
37341;SDS011;58643;49.052;8.518;2023-03-01T04:05:43;29.42;;;14.10;;
37341;SDS011;58643;49.052;8.518;2023-03-01T04:08:09;32.25;;;15.75;;
37341;SDS011;58643;49.052;8.518;2023-03-01T04:10:39;44.67;;;16.08;;
37341;SDS011;58643;49.052;8.518;2023-03-01T04:13:07;29.40;;;14.65;;
37341;SDS011;58643;49.052;8.518;2023-03-01T04:15:35;28.55;;;13.90;;
37341;SDS011;58643;49.052;8.518;2023-03-01T04:18:01;36.45;;;16.23;;
37341;SDS011;58643;49.052;8.518;2023-03-01T04:20:28;31.48;;;15.07;;
37341;SDS011;58643;49.052;8.518;2023-03-01T04:23:04;37.17;;;15.93;;
37341;SDS011;58643;49.052;8.518;2023-03-01T04:25:38;25.65;;;13.05;;
37341;SDS011;58643;49.052;8.518;2023-03-01T04:28:10;28.58;;;14.38;;
37341;SDS011;58643;49.052;8.518;2023-03-01T04:30:36;27.13;;;13.95;;
37341;SDS011;58643;49.052;8.518;2023-03-01T04:33:04;30.73;;;14.70;;
37341;SDS011;58643;49.052;8.518;2023-03-01T04:35:30;33.28;;;15.65;;
37341;SDS011;58643;49.052;8.518;2023-03-01T04:37:56;29.20;;;14.85;;
37341;SDS011;58643;49.052;8.518;2023-03-01T04:40:22;28.95;;;13.73;;
37341;SDS011;58643;49.052;8.518;2023-03-01T04:42:48;27.75;;;14.20;;
37341;SDS011;58643;49.052;8.518;2023-03-01T04:45:14;27.92;;;14.13;;
37341;SDS011;58643;49.052;8.518;2023-03-01T04:47:40;32.20;;;14.90;;
37341;SDS011;58643;49.052;8.518;2023-03-01T04:50:10;38.95;;;16.65;;
37341;SDS011;58643;49.052;8.518;2023-03-01T04:52:37;30.95;;;14.70;;
37341;SDS011;58643;49.052;8.518;2023-03-01T04:55:03;32.47;;;15.27;;
37341;SDS011;58643;49.052;8.518;2023-03-01T04:57:30;31.77;;;15.27;;
37341;SDS011;58643;49.052;8.518;2023-03-01T04:59:55;31.92;;;14.82;;
37341;SDS011;58643;49.052;8.518;2023-03-01T05:02:21;35.33;;;16.75;;
37341;SDS011;58643;49.052;8.518;2023-03-01T05:04:47;33.65;;;15.77;;
37341;SDS011;58643;49.052;8.518;2023-03-01T05:07:12;31.17;;;15.18;;
37341;SDS011;58643;49.052;8.518;2023-03-01T05:09:44;29.92;;;15.13;;
37341;SDS011;58643;49.052;8.518;2023-03-01T05:12:10;29.67;;;14.43;;
37341;SDS011;58643;49.052;8.518;2023-03-01T05:14:36;30.67;;;15.40;;
37341;SDS011;58643;49.052;8.518;2023-03-01T05:17:03;34.15;;;15.18;;
37341;SDS011;58643;49.052;8.518;2023-03-01T05:19:29;32.45;;;15.57;;
37341;SDS011;58643;49.052;8.518;2023-03-01T05:21:56;34.03;;;15.80;;
37341;SDS011;58643;49.052;8.518;2023-03-01T05:24:29;30.13;;;14.15;;
37341;SDS011;58643;49.052;8.518;2023-03-01T05:26:56;34.80;;;15.10;;
37341;SDS011;58643;49.052;8.518;2023-03-01T05:29:22;31.45;;;15.27;;
37341;SDS011;58643;49.052;8.518;2023-03-01T05:31:53;31.02;;;15.68;;
37341;SDS011;58643;49.052;8.518;2023-03-01T05:34:25;31.42;;;15.52;;
37341;SDS011;58643;49.052;8.518;2023-03-01T05:36:56;35.15;;;17.10;;
37341;SDS011;58643;49.052;8.518;2023-03-01T05:39:22;34.63;;;15.75;;
37341;SDS011;58643;49.052;8.518;2023-03-01T05:41:56;31.77;;;15.70;;
37341;SDS011;58643;49.052;8.518;2023-03-01T05:44:24;36.63;;;15.63;;
37341;SDS011;58643;49.052;8.518;2023-03-01T05:46:50;40.15;;;16.20;;
37341;SDS011;58643;49.052;8.518;2023-03-01T05:49:16;33.55;;;15.25;;
37341;SDS011;58643;49.052;8.518;2023-03-01T05:51:43;35.42;;;17.05;;
37341;SDS011;58643;49.052;8.518;2023-03-01T05:54:12;30.95;;;15.77;;
37341;SDS011;58643;49.052;8.518;2023-03-01T05:56:38;34.08;;;16.23;;
37341;SDS011;58643;49.052;8.518;2023-03-01T05:59:03;35.97;;;15.60;;
37341;SDS011;58643;49.052;8.518;2023-03-01T06:01:30;39.50;;;16.38;;
37341;SDS011;58643;49.052;8.518;2023-03-01T06:03:56;37.83;;;15.60;;
37341;SDS011;58643;49.052;8.518;2023-03-01T06:06:22;29.77;;;16.00;;
37341;SDS011;58643;49.052;8.518;2023-03-01T06:08:49;37.08;;;16.98;;
37341;SDS011;58643;49.052;8.518;2023-03-01T06:11:15;33.88;;;16.58;;
37341;SDS011;58643;49.052;8.518;2023-03-01T06:13:44;32.10;;;15.73;;
37341;SDS011;58643;49.052;8.518;2023-03-01T06:16:10;38.83;;;17.48;;
37341;SDS011;58643;49.052;8.518;2023-03-01T06:18:36;34.20;;;16.60;;
37341;SDS011;58643;49.052;8.518;2023-03-01T06:21:03;41.25;;;17.75;;
37341;SDS011;58643;49.052;8.518;2023-03-01T06:23:29;35.30;;;16.77;;
37341;SDS011;58643;49.052;8.518;2023-03-01T06:25:55;35.72;;;17.30;;
37341;SDS011;58643;49.052;8.518;2023-03-01T06:28:20;39.05;;;16.73;;
37341;SDS011;58643;49.052;8.518;2023-03-01T06:30:46;38.63;;;17.42;;
37341;SDS011;58643;49.052;8.518;2023-03-01T06:33:14;36.30;;;16.88;;
37341;SDS011;58643;49.052;8.518;2023-03-01T06:35:39;34.28;;;16.70;;
37341;SDS011;58643;49.052;8.518;2023-03-01T06:38:05;37.38;;;17.52;;
37341;SDS011;58643;49.052;8.518;2023-03-01T06:40:31;36.50;;;16.38;;
37341;SDS011;58643;49.052;8.518;2023-03-01T06:42:57;32.03;;;15.98;;
37341;SDS011;58643;49.052;8.518;2023-03-01T06:45:24;34.53;;;17.17;;
37341;SDS011;58643;49.052;8.518;2023-03-01T06:47:50;40.13;;;17.38;;
37341;SDS011;58643;49.052;8.518;2023-03-01T06:50:16;39.20;;;16.85;;
37341;SDS011;58643;49.052;8.518;2023-03-01T06:52:42;38.40;;;17.52;;
37341;SDS011;58643;49.052;8.518;2023-03-01T06:55:09;34.35;;;17.27;;
37341;SDS011;58643;49.052;8.518;2023-03-01T06:57:36;35.95;;;16.05;;
37341;SDS011;58643;49.052;8.518;2023-03-01T07:00:02;38.97;;;17.45;;
37341;SDS011;58643;49.052;8.518;2023-03-01T07:02:29;36.15;;;17.65;;
37341;SDS011;58643;49.052;8.518;2023-03-01T07:04:55;37.13;;;17.15;;
37341;SDS011;58643;49.052;8.518;2023-03-01T07:07:21;35.70;;;18.23;;
37341;SDS011;58643;49.052;8.518;2023-03-01T07:09:48;33.10;;;16.33;;
37341;SDS011;58643;49.052;8.518;2023-03-01T07:12:14;37.88;;;16.85;;
37341;SDS011;58643;49.052;8.518;2023-03-01T07:14:40;38.60;;;19.77;;
37341;SDS011;58643;49.052;8.518;2023-03-01T07:17:06;41.72;;;18.98;;
37341;SDS011;58643;49.052;8.518;2023-03-01T07:19:32;37.47;;;16.52;;
37341;SDS011;58643;49.052;8.518;2023-03-01T07:21:57;37.33;;;18.58;;
37341;SDS011;58643;49.052;8.518;2023-03-01T07:24:23;38.70;;;16.55;;
37341;SDS011;58643;49.052;8.518;2023-03-01T07:26:49;36.40;;;17.30;;
37341;SDS011;58643;49.052;8.518;2023-03-01T07:29:16;36.55;;;16.65;;
37341;SDS011;58643;49.052;8.518;2023-03-01T07:31:42;39.33;;;17.73;;
37341;SDS011;58643;49.052;8.518;2023-03-01T07:34:07;33.13;;;16.48;;
37341;SDS011;58643;49.052;8.518;2023-03-01T07:36:33;38.47;;;17.73;;
37341;SDS011;58643;49.052;8.518;2023-03-01T07:38:59;34.25;;;17.50;;
37341;SDS011;58643;49.052;8.518;2023-03-01T07:41:27;33.95;;;17.20;;
37341;SDS011;58643;49.052;8.518;2023-03-01T07:43:52;36.95;;;18.33;;
37341;SDS011;58643;49.052;8.518;2023-03-01T07:46:18;36.22;;;17.85;;
37341;SDS011;58643;49.052;8.518;2023-03-01T07:48:44;34.00;;;16.67;;
37341;SDS011;58643;49.052;8.518;2023-03-01T07:51:09;37.22;;;18.27;;
37341;SDS011;58643;49.052;8.518;2023-03-01T07:53:35;45.00;;;16.48;;
37341;SDS011;58643;49.052;8.518;2023-03-01T07:56:05;41.38;;;17.40;;
37341;SDS011;58643;49.052;8.518;2023-03-01T07:58:36;36.63;;;16.77;;
37341;SDS011;58643;49.052;8.518;2023-03-01T08:01:03;42.10;;;17.90;;
37341;SDS011;58643;49.052;8.518;2023-03-01T08:03:30;32.75;;;15.82;;
37341;SDS011;58643;49.052;8.518;2023-03-01T08:05:55;35.10;;;16.63;;
37341;SDS011;58643;49.052;8.518;2023-03-01T08:08:23;38.15;;;16.58;;
37341;SDS011;58643;49.052;8.518;2023-03-01T08:10:49;36.55;;;15.73;;
37341;SDS011;58643;49.052;8.518;2023-03-01T08:13:15;29.17;;;15.73;;
37341;SDS011;58643;49.052;8.518;2023-03-01T08:15:40;32.50;;;16.00;;
37341;SDS011;58643;49.052;8.518;2023-03-01T08:18:06;29.80;;;14.90;;
37341;SDS011;58643;49.052;8.518;2023-03-01T08:20:31;32.17;;;15.57;;
37341;SDS011;58643;49.052;8.518;2023-03-01T08:22:57;31.48;;;14.02;;
37341;SDS011;58643;49.052;8.518;2023-03-01T08:25:23;28.08;;;14.65;;
37341;SDS011;58643;49.052;8.518;2023-03-01T08:27:48;34.50;;;14.18;;
37341;SDS011;58643;49.052;8.518;2023-03-01T08:30:14;36.60;;;16.35;;
37341;SDS011;58643;49.052;8.518;2023-03-01T08:32:40;36.80;;;15.93;;
37341;SDS011;58643;49.052;8.518;2023-03-01T08:35:05;32.70;;;15.95;;
37341;SDS011;58643;49.052;8.518;2023-03-01T08:37:31;34.08;;;17.17;;
37341;SDS011;58643;49.052;8.518;2023-03-01T08:39:58;30.63;;;15.90;;
37341;SDS011;58643;49.052;8.518;2023-03-01T08:42:24;39.88;;;15.90;;
37341;SDS011;58643;49.052;8.518;2023-03-01T08:44:51;21.73;;;11.95;;
37341;SDS011;58643;49.052;8.518;2023-03-01T08:47:16;30.42;;;15.80;;
37341;SDS011;58643;49.052;8.518;2023-03-01T08:49:42;30.25;;;14.50;;
37341;SDS011;58643;49.052;8.518;2023-03-01T08:52:07;29.58;;;14.15;;
37341;SDS011;58643;49.052;8.518;2023-03-01T08:54:33;27.42;;;13.95;;
37341;SDS011;58643;49.052;8.518;2023-03-01T08:57:01;25.20;;;12.93;;
37341;SDS011;58643;49.052;8.518;2023-03-01T08:59:27;28.98;;;15.10;;
37341;SDS011;58643;49.052;8.518;2023-03-01T09:01:54;29.90;;;15.60;;
37341;SDS011;58643;49.052;8.518;2023-03-01T09:04:23;25.98;;;13.93;;
37341;SDS011;58643;49.052;8.518;2023-03-01T09:06:48;28.38;;;13.95;;
37341;SDS011;58643;49.052;8.518;2023-03-01T09:09:15;28.85;;;13.90;;
37341;SDS011;58643;49.052;8.518;2023-03-01T09:11:42;23.50;;;13.48;;
37341;SDS011;58643;49.052;8.518;2023-03-01T09:14:10;29.45;;;14.05;;
37341;SDS011;58643;49.052;8.518;2023-03-01T09:16:37;31.23;;;15.07;;
37341;SDS011;58643;49.052;8.518;2023-03-01T09:19:03;29.85;;;15.23;;
37341;SDS011;58643;49.052;8.518;2023-03-01T09:21:29;27.30;;;15.23;;
37341;SDS011;58643;49.052;8.518;2023-03-01T09:23:55;30.00;;;14.98;;
37341;SDS011;58643;49.052;8.518;2023-03-01T09:26:22;25.88;;;15.05;;
37341;SDS011;58643;49.052;8.518;2023-03-01T09:28:49;29.70;;;15.43;;
37341;SDS011;58643;49.052;8.518;2023-03-01T09:31:16;29.58;;;15.43;;
37341;SDS011;58643;49.052;8.518;2023-03-01T09:33:45;27.55;;;15.35;;
37341;SDS011;58643;49.052;8.518;2023-03-01T09:38:39;27.42;;;14.93;;
37341;SDS011;58643;49.052;8.518;2023-03-01T09:43:43;28.77;;;15.23;;
37341;SDS011;58643;49.052;8.518;2023-03-01T09:46:19;26.40;;;15.07;;
37341;SDS011;58643;49.052;8.518;2023-03-01T09:49:09;26.13;;;14.60;;
37341;SDS011;58643;49.052;8.518;2023-03-01T09:54:28;23.80;;;13.85;;
37341;SDS011;58643;49.052;8.518;2023-03-01T09:56:59;25.60;;;15.68;;
37341;SDS011;58643;49.052;8.518;2023-03-01T10:04:54;26.65;;;16.30;;
37341;SDS011;58643;49.052;8.518;2023-03-01T10:10:16;27.88;;;17.20;;
37341;SDS011;58643;49.052;8.518;2023-03-01T10:15:43;26.38;;;16.70;;
37341;SDS011;58643;49.052;8.518;2023-03-01T10:18:17;32.78;;;15.18;;
37341;SDS011;58643;49.052;8.518;2023-03-01T10:21:00;28.20;;;15.70;;
37341;SDS011;58643;49.052;8.518;2023-03-01T10:23:29;31.20;;;15.85;;
37341;SDS011;58643;49.052;8.518;2023-03-01T10:31:36;27.95;;;16.23;;
37341;SDS011;58643;49.052;8.518;2023-03-01T10:34:09;25.58;;;16.60;;
37341;SDS011;58643;49.052;8.518;2023-03-01T10:36:39;28.95;;;15.85;;
37341;SDS011;58643;49.052;8.518;2023-03-01T10:39:11;25.83;;;16.00;;
37341;SDS011;58643;49.052;8.518;2023-03-01T10:41:45;24.25;;;15.65;;
37341;SDS011;58643;49.052;8.518;2023-03-01T10:47:23;24.45;;;15.32;;
37341;SDS011;58643;49.052;8.518;2023-03-01T10:49:51;24.10;;;15.18;;
37341;SDS011;58643;49.052;8.518;2023-03-01T10:52:19;22.77;;;15.35;;
37341;SDS011;58643;49.052;8.518;2023-03-01T10:54:52;26.02;;;16.42;;
37341;SDS011;58643;49.052;8.518;2023-03-01T10:57:27;31.30;;;15.73;;
37341;SDS011;58643;49.052;8.518;2023-03-01T11:00:23;23.95;;;15.35;;
37341;SDS011;58643;49.052;8.518;2023-03-01T11:03:04;25.08;;;15.18;;
37341;SDS011;58643;49.052;8.518;2023-03-01T11:05:37;25.48;;;16.38;;
37341;SDS011;58643;49.052;8.518;2023-03-01T11:08:33;27.05;;;17.17;;
37341;SDS011;58643;49.052;8.518;2023-03-01T11:11:06;27.08;;;16.55;;
37341;SDS011;58643;49.052;8.518;2023-03-01T11:13:35;29.17;;;16.52;;
37341;SDS011;58643;49.052;8.518;2023-03-01T11:16:06;27.38;;;15.50;;
37341;SDS011;58643;49.052;8.518;2023-03-01T11:18:37;28.70;;;16.33;;
37341;SDS011;58643;49.052;8.518;2023-03-01T11:21:02;24.70;;;16.90;;
37341;SDS011;58643;49.052;8.518;2023-03-01T11:23:30;22.67;;;14.93;;
37341;SDS011;58643;49.052;8.518;2023-03-01T11:26:01;26.48;;;16.15;;
37341;SDS011;58643;49.052;8.518;2023-03-01T11:28:30;26.13;;;15.55;;
37341;SDS011;58643;49.052;8.518;2023-03-01T11:31:05;27.35;;;16.38;;
37341;SDS011;58643;49.052;8.518;2023-03-01T11:33:38;26.02;;;15.70;;
37341;SDS011;58643;49.052;8.518;2023-03-01T11:39:02;25.90;;;15.65;;
37341;SDS011;58643;49.052;8.518;2023-03-01T11:41:36;25.55;;;15.70;;
37341;SDS011;58643;49.052;8.518;2023-03-01T11:44:23;27.75;;;16.67;;
37341;SDS011;58643;49.052;8.518;2023-03-01T11:49:47;25.70;;;16.05;;
37341;SDS011;58643;49.052;8.518;2023-03-01T12:09:47;22.38;;;14.98;;
37341;SDS011;58643;49.052;8.518;2023-03-01T12:22:48;25.60;;;16.20;;
37341;SDS011;58643;49.052;8.518;2023-03-01T12:25:45;24.55;;;16.55;;
37341;SDS011;58643;49.052;8.518;2023-03-01T12:33:55;26.40;;;16.80;;
37341;SDS011;58643;49.052;8.518;2023-03-01T12:36:48;29.55;;;16.00;;
37341;SDS011;58643;49.052;8.518;2023-03-01T12:45:20;22.20;;;14.50;;
37341;SDS011;58643;49.052;8.518;2023-03-01T12:47:58;28.98;;;16.83;;
37341;SDS011;58643;49.052;8.518;2023-03-01T12:50:43;22.40;;;15.88;;
37341;SDS011;58643;49.052;8.518;2023-03-01T12:53:22;23.13;;;15.07;;
37341;SDS011;58643;49.052;8.518;2023-03-01T12:55:52;27.58;;;16.60;;
37341;SDS011;58643;49.052;8.518;2023-03-01T12:58:26;25.52;;;15.40;;
37341;SDS011;58643;49.052;8.518;2023-03-01T13:11:58;24.67;;;15.90;;
37341;SDS011;58643;49.052;8.518;2023-03-01T13:16:50;23.23;;;15.88;;
37341;SDS011;58643;49.052;8.518;2023-03-01T13:19:17;24.83;;;15.40;;
37341;SDS011;58643;49.052;8.518;2023-03-01T13:21:45;26.88;;;17.05;;
37341;SDS011;58643;49.052;8.518;2023-03-01T13:29:43;22.88;;;15.10;;
37341;SDS011;58643;49.052;8.518;2023-03-01T13:37:19;24.27;;;15.30;;
37341;SDS011;58643;49.052;8.518;2023-03-01T13:39:47;23.38;;;15.30;;
37341;SDS011;58643;49.052;8.518;2023-03-01T13:42:33;22.33;;;15.40;;
37341;SDS011;58643;49.052;8.518;2023-03-01T13:45:02;24.08;;;14.73;;
37341;SDS011;58643;49.052;8.518;2023-03-01T13:47:41;22.87;;;14.33;;
37341;SDS011;58643;49.052;8.518;2023-03-01T13:50:15;22.80;;;14.38;;
37341;SDS011;58643;49.052;8.518;2023-03-01T13:52:54;24.52;;;15.63;;
37341;SDS011;58643;49.052;8.518;2023-03-01T13:58:04;22.52;;;14.13;;
37341;SDS011;58643;49.052;8.518;2023-03-01T14:00:40;24.98;;;16.45;;
37341;SDS011;58643;49.052;8.518;2023-03-01T14:05:36;25.45;;;15.48;;
37341;SDS011;58643;49.052;8.518;2023-03-01T14:08:04;21.13;;;13.93;;
37341;SDS011;58643;49.052;8.518;2023-03-01T14:10:32;24.02;;;15.18;;
37341;SDS011;58643;49.052;8.518;2023-03-01T14:13:22;26.52;;;15.23;;
37341;SDS011;58643;49.052;8.518;2023-03-01T14:18:51;23.58;;;14.90;;
37341;SDS011;58643;49.052;8.518;2023-03-01T14:21:37;24.90;;;15.02;;
37341;SDS011;58643;49.052;8.518;2023-03-01T14:24:03;27.35;;;15.38;;
37341;SDS011;58643;49.052;8.518;2023-03-01T14:26:29;22.33;;;14.23;;
37341;SDS011;58643;49.052;8.518;2023-03-01T14:34:03;24.75;;;15.00;;
37341;SDS011;58643;49.052;8.518;2023-03-01T14:36:30;24.50;;;14.55;;
37341;SDS011;58643;49.052;8.518;2023-03-01T14:38:57;25.00;;;15.65;;
37341;SDS011;58643;49.052;8.518;2023-03-01T14:41:29;22.13;;;15.15;;
37341;SDS011;58643;49.052;8.518;2023-03-01T14:43:59;21.50;;;14.10;;
37341;SDS011;58643;49.052;8.518;2023-03-01T14:46:40;24.92;;;15.48;;
37341;SDS011;58643;49.052;8.518;2023-03-01T14:52:06;23.65;;;15.65;;
37341;SDS011;58643;49.052;8.518;2023-03-01T14:54:42;22.60;;;14.73;;
37341;SDS011;58643;49.052;8.518;2023-03-01T14:57:23;22.83;;;14.27;;
37341;SDS011;58643;49.052;8.518;2023-03-01T14:59:54;23.42;;;15.10;;
37341;SDS011;58643;49.052;8.518;2023-03-01T15:02:23;20.75;;;14.43;;
37341;SDS011;58643;49.052;8.518;2023-03-01T15:05:00;24.30;;;14.82;;
37341;SDS011;58643;49.052;8.518;2023-03-01T15:07:32;23.00;;;15.20;;
37341;SDS011;58643;49.052;8.518;2023-03-01T15:10:02;23.17;;;14.05;;
37341;SDS011;58643;49.052;8.518;2023-03-01T15:15:00;22.58;;;14.70;;
37341;SDS011;58643;49.052;8.518;2023-03-01T15:17:29;25.13;;;15.13;;
37341;SDS011;58643;49.052;8.518;2023-03-01T15:22:21;21.15;;;14.25;;
37341;SDS011;58643;49.052;8.518;2023-03-01T15:24:49;21.98;;;14.70;;
37341;SDS011;58643;49.052;8.518;2023-03-01T15:27:19;22.30;;;14.95;;
37341;SDS011;58643;49.052;8.518;2023-03-01T15:29:57;23.50;;;14.10;;
37341;SDS011;58643;49.052;8.518;2023-03-01T15:32:31;23.48;;;14.57;;
37341;SDS011;58643;49.052;8.518;2023-03-01T15:34:59;25.70;;;15.20;;
37341;SDS011;58643;49.052;8.518;2023-03-01T15:37:35;22.90;;;14.23;;
37341;SDS011;58643;49.052;8.518;2023-03-01T15:42:56;23.25;;;13.85;;
37341;SDS011;58643;49.052;8.518;2023-03-01T15:45:24;26.73;;;14.55;;
37341;SDS011;58643;49.052;8.518;2023-03-01T15:47:56;23.65;;;13.63;;
37341;SDS011;58643;49.052;8.518;2023-03-01T15:50:27;22.35;;;15.02;;
37341;SDS011;58643;49.052;8.518;2023-03-01T15:52:55;24.25;;;14.52;;
37341;SDS011;58643;49.052;8.518;2023-03-01T15:58:04;25.10;;;14.38;;
37341;SDS011;58643;49.052;8.518;2023-03-01T16:00:34;23.23;;;14.52;;
37341;SDS011;58643;49.052;8.518;2023-03-01T16:03:00;22.52;;;13.93;;
37341;SDS011;58643;49.052;8.518;2023-03-01T16:05:29;25.13;;;14.48;;
37341;SDS011;58643;49.052;8.518;2023-03-01T16:07:59;23.75;;;15.02;;
37341;SDS011;58643;49.052;8.518;2023-03-01T16:10:25;25.55;;;14.95;;
37341;SDS011;58643;49.052;8.518;2023-03-01T16:12:52;25.35;;;15.05;;
37341;SDS011;58643;49.052;8.518;2023-03-01T16:15:19;29.95;;;15.13;;
37341;SDS011;58643;49.052;8.518;2023-03-01T16:17:46;25.63;;;14.97;;
37341;SDS011;58643;49.052;8.518;2023-03-01T16:20:12;24.42;;;14.55;;
37341;SDS011;58643;49.052;8.518;2023-03-01T16:22:41;21.08;;;13.18;;
37341;SDS011;58643;49.052;8.518;2023-03-01T16:25:08;23.65;;;14.10;;
37341;SDS011;58643;49.052;8.518;2023-03-01T16:27:34;26.73;;;15.68;;
37341;SDS011;58643;49.052;8.518;2023-03-01T16:30:00;25.55;;;14.00;;
37341;SDS011;58643;49.052;8.518;2023-03-01T16:32:26;26.58;;;14.77;;
37341;SDS011;58643;49.052;8.518;2023-03-01T16:34:51;24.10;;;14.18;;
37341;SDS011;58643;49.052;8.518;2023-03-01T16:37:17;23.23;;;13.85;;
37341;SDS011;58643;49.052;8.518;2023-03-01T16:39:44;26.42;;;15.40;;
37341;SDS011;58643;49.052;8.518;2023-03-01T16:42:09;28.05;;;15.55;;
37341;SDS011;58643;49.052;8.518;2023-03-01T16:44:35;25.40;;;14.90;;
37341;SDS011;58643;49.052;8.518;2023-03-01T16:47:00;24.25;;;15.05;;
37341;SDS011;58643;49.052;8.518;2023-03-01T16:49:26;30.92;;;15.48;;
37341;SDS011;58643;49.052;8.518;2023-03-01T16:51:53;28.02;;;15.13;;
37341;SDS011;58643;49.052;8.518;2023-03-01T16:54:19;27.33;;;15.13;;
37341;SDS011;58643;49.052;8.518;2023-03-01T16:56:44;26.38;;;14.65;;